createdAt,value
2023-05-02T00:00:01.524Z,3.25
2023-05-02T00:01:05.188Z,2.50
2023-05-02T00:02:09.009Z,2.75
2023-05-02T00:03:12.970Z,3.00
2023-05-02T00:04:16.601Z,3.50
2023-05-02T00:05:20.972Z,3.50
2023-05-02T00:06:24.516Z,3.25
2023-05-02T00:07:28.356Z,3.00
2023-05-02T00:08:31.960Z,3.00
2023-05-02T00:09:35.559Z,3.25
2023-05-02T00:10:39.654Z,3.00
2023-05-02T00:11:43.138Z,3.50
2023-05-02T00:12:47.033Z,3.50
2023-05-02T00:13:50.320Z,3.50
2023-05-02T00:14:53.604Z,2.75
2023-05-02T00:15:56.995Z,3.50
2023-05-02T00:17:00.314Z,4.00
2023-05-02T00:18:03.917Z,4.00
2023-05-02T00:19:07.360Z,2.50
2023-05-02T00:20:10.847Z,2.75
2023-05-02T00:21:14.330Z,2.50
2023-05-02T00:22:17.624Z,4.00
2023-05-02T00:23:20.906Z,3.50
2023-05-02T00:24:24.386Z,3.00
2023-05-02T00:25:27.677Z,4.00
2023-05-02T00:26:31.475Z,2.50
2023-05-02T00:27:35.189Z,2.50
2023-05-02T00:28:38.450Z,3.00
2023-05-02T00:29:41.730Z,3.00
2023-05-02T00:30:45.721Z,1.75
2023-05-02T00:31:48.813Z,2.00
2023-05-02T00:32:52.103Z,3.75
2023-05-02T00:33:55.275Z,4.25
2023-05-02T00:34:58.580Z,4.50
2023-05-02T00:36:01.742Z,4.50
2023-05-02T00:37:05.031Z,3.25
2023-05-02T00:38:08.620Z,2.50
2023-05-02T00:39:12.221Z,2.00
2023-05-02T00:40:15.494Z,3.50
2023-05-02T00:41:18.774Z,3.00
2023-05-02T00:42:21.977Z,3.00
2023-05-02T00:43:25.552Z,3.00
2023-05-02T00:44:28.836Z,4.00
2023-05-02T00:45:32.564Z,3.00
2023-05-02T00:46:35.668Z,4.00
2023-05-02T00:47:39.663Z,4.50
2023-05-02T00:48:43.208Z,3.00
2023-05-02T00:52:19.069Z,4.00
2023-05-02T00:53:22.556Z,3.50
2023-05-02T00:54:26.147Z,5.00
2023-05-02T00:55:29.859Z,4.50
2023-05-02T00:56:33.330Z,5.75
2023-05-02T00:57:37.263Z,5.50
2023-05-02T00:58:40.732Z,3.25
2023-05-02T00:59:44.308Z,2.50
2023-05-02T01:00:47.899Z,2.75
2023-05-02T01:01:51.227Z,3.50
2023-05-02T01:02:54.756Z,3.00
2023-05-02T01:03:58.519Z,3.50
2023-05-02T01:05:02.186Z,4.75
2023-05-02T01:06:05.802Z,3.25
2023-05-02T01:07:09.344Z,4.00
2023-05-02T01:08:12.933Z,3.00
2023-05-02T01:09:16.730Z,1.75
2023-05-02T01:10:20.439Z,3.25
2023-05-02T01:11:23.855Z,2.75
2023-05-02T01:12:27.412Z,2.50
2023-05-02T01:13:31.004Z,3.00
2023-05-02T01:14:34.726Z,2.50
2023-05-02T01:15:38.365Z,3.00
2023-05-02T01:16:42.152Z,4.00
2023-05-02T01:17:46.098Z,4.50
2023-05-02T01:18:49.472Z,4.75
2023-05-02T01:19:52.993Z,4.50
2023-05-02T01:20:56.131Z,4.50
2023-05-02T01:21:59.416Z,3.25
2023-05-02T01:23:02.916Z,4.00
2023-05-02T01:24:06.087Z,5.00
2023-05-02T01:25:09.481Z,2.75
2023-05-02T01:26:12.760Z,2.25
2023-05-02T01:27:15.945Z,3.00
2023-05-02T01:28:19.332Z,3.00
2023-05-02T01:29:22.611Z,3.00
2023-05-02T01:30:25.802Z,3.00
2023-05-02T01:31:29.030Z,2.50
2023-05-02T01:32:32.422Z,4.00
2023-05-02T01:33:35.754Z,4.75
2023-05-02T01:34:38.951Z,4.00
2023-05-02T01:35:42.536Z,2.50
2023-05-02T01:36:45.911Z,3.00
2023-05-02T01:37:49.098Z,3.50
2023-05-02T01:38:52.370Z,3.50
2023-05-02T01:39:55.562Z,3.00
2023-05-02T01:40:58.842Z,2.80
2023-05-02T01:42:02.229Z,3.00
2023-05-02T01:43:05.626Z,4.00
2023-05-02T01:44:08.905Z,5.50
2023-05-02T01:45:12.284Z,4.00
2023-05-02T01:46:15.499Z,3.75
2023-05-02T01:47:18.856Z,3.25
2023-05-02T01:48:22.781Z,3.00
2023-05-02T01:49:26.452Z,4.00
2023-05-02T01:50:30.665Z,3.00
2023-05-02T01:51:34.858Z,2.00
2023-05-02T01:52:38.477Z,2.00
2023-05-02T01:53:42.456Z,2.50
2023-05-02T01:54:46.259Z,3.00
2023-05-02T01:55:52.808Z,2.00
2023-05-02T01:56:56.204Z,2.00
2023-05-02T01:57:59.892Z,3.25
2023-05-02T01:59:03.691Z,2.75
2023-05-02T02:00:07.380Z,4.00
2023-05-02T02:01:10.900Z,3.50
2023-05-02T02:02:14.569Z,3.25
2023-05-02T02:03:18.099Z,3.75
2023-05-02T02:04:21.860Z,3.75
2023-05-02T02:05:25.030Z,4.50
2023-05-02T02:06:28.375Z,4.50
2023-05-02T02:07:31.924Z,4.00
2023-05-02T02:08:35.306Z,2.50
2023-05-02T02:09:38.788Z,1.50
2023-05-02T02:10:42.378Z,2.50
2023-05-02T02:11:45.869Z,3.00
2023-05-02T02:12:49.357Z,4.50
2023-05-02T02:13:52.634Z,3.25
2023-05-02T02:14:57.982Z,3.00
2023-05-02T02:16:01.370Z,3.00
2023-05-02T02:17:05.040Z,4.00
2023-05-02T02:18:08.287Z,4.00
2023-05-02T02:19:11.617Z,2.50
2023-05-02T02:20:15.107Z,4.00
2023-05-02T02:21:18.396Z,3.25
2023-05-02T02:22:21.983Z,3.00
2023-05-02T02:23:25.062Z,3.50
2023-05-02T02:24:28.552Z,4.25
2023-05-02T02:25:31.730Z,3.50
2023-05-02T02:26:35.527Z,4.00
2023-05-02T02:27:39.241Z,2.75
2023-05-02T02:28:42.909Z,2.75
2023-05-02T02:29:46.376Z,3.00
2023-05-02T02:30:50.205Z,3.50
2023-05-02T02:31:53.908Z,3.00
2023-05-02T02:32:57.470Z,3.00
2023-05-02T02:34:00.981Z,3.00
2023-05-02T02:35:04.463Z,2.50
2023-05-02T02:36:07.861Z,2.50
2023-05-02T02:37:11.336Z,3.25
2023-05-02T02:38:14.832Z,2.25
2023-05-02T02:39:18.333Z,2.75
2023-05-02T02:40:21.815Z,2.75
2023-05-02T02:41:25.294Z,3.25
2023-05-02T02:42:28.890Z,3.50
2023-05-02T02:43:32.479Z,3.50
2023-05-02T02:44:36.072Z,4.00
2023-05-02T02:45:39.461Z,2.50
2023-05-02T02:46:43.209Z,2.75
2023-05-02T02:47:47.097Z,2.75
2023-05-02T02:48:50.234Z,2.25
2023-05-02T02:49:53.717Z,1.75
2023-05-02T02:50:57.216Z,3.50
2023-05-02T02:52:00.699Z,3.00
2023-05-02T02:53:03.877Z,4.00
2023-05-02T02:54:18.975Z,4.50
2023-05-02T02:55:11.680Z,3.25
2023-05-02T02:56:15.090Z,3.00
2023-05-02T02:57:18.276Z,3.50
2023-05-02T02:58:21.527Z,3.25
2023-05-02T02:59:24.830Z,3.00
2023-05-02T03:00:28.113Z,2.50
2023-05-02T03:01:31.416Z,3.25
2023-05-02T03:02:34.707Z,3.50
2023-05-02T03:03:38.438Z,4.75
2023-05-02T03:04:41.746Z,4.75
2023-05-02T03:05:44.953Z,3.00
2023-05-02T03:06:48.449Z,2.25
2023-05-02T03:07:51.601Z,2.50
2023-05-02T03:08:54.731Z,2.50
2023-05-02T03:09:58.307Z,1.25
2023-05-02T03:11:01.562Z,2.50
2023-05-02T03:12:04.846Z,3.00
2023-05-02T03:13:08.119Z,3.50
2023-05-02T03:14:11.612Z,3.00
2023-05-02T03:15:14.919Z,3.00
2023-05-02T03:16:18.169Z,2.50
2023-05-02T03:17:21.351Z,3.00
2023-05-02T03:18:24.613Z,3.00
2023-05-02T03:19:27.724Z,3.00
2023-05-02T03:20:31.252Z,3.50
2023-05-02T03:21:34.403Z,3.00
2023-05-02T03:22:37.687Z,2.00
2023-05-02T03:23:41.103Z,3.00
2023-05-02T03:24:44.347Z,4.00
2023-05-02T03:25:47.619Z,3.00
2023-05-02T03:26:51.035Z,3.50
2023-05-02T03:27:54.513Z,3.00
2023-05-02T03:28:58.123Z,2.00
2023-05-02T03:30:01.873Z,2.00
2023-05-02T03:31:05.712Z,3.00
2023-05-02T03:32:09.124Z,2.50
2023-05-02T03:33:12.548Z,2.00
2023-05-02T03:34:15.854Z,3.00
2023-05-02T03:35:19.555Z,1.25
2023-05-02T03:36:23.063Z,1.50
2023-05-02T03:37:26.350Z,1.25
2023-05-02T03:38:29.397Z,1.25
2023-05-02T03:39:32.693Z,2.00
2023-05-02T03:40:35.830Z,1.50
2023-05-02T03:41:38.956Z,1.25
2023-05-02T03:42:41.928Z,2.50
2023-05-02T03:43:44.973Z,3.00
2023-05-02T03:44:48.048Z,4.50
2023-05-02T03:45:51.163Z,1.50
2023-05-02T03:46:54.836Z,0.75
2023-05-02T03:47:58.186Z,2.50
2023-05-02T03:49:01.540Z,2.25
2023-05-02T03:50:04.608Z,1.75
2023-05-02T03:51:07.725Z,4.00
2023-05-02T03:52:11.174Z,6.25
2023-05-02T03:53:14.253Z,2.25
2023-05-02T03:54:17.432Z,2.00
2023-05-02T03:55:20.835Z,2.25
2023-05-02T03:56:24.117Z,1.50
2023-05-02T03:57:27.297Z,1.50
2023-05-02T03:58:30.479Z,2.25
2023-05-02T03:59:33.650Z,3.00
2023-05-02T04:00:36.833Z,2.50
2023-05-02T04:01:40.339Z,2.50
2023-05-02T04:02:43.620Z,3.00
2023-05-02T04:03:47.129Z,2.50
2023-05-02T04:04:50.585Z,1.00
2023-05-02T04:05:53.781Z,1.50
2023-05-02T04:06:56.992Z,2.50
2023-05-02T04:08:00.349Z,0.75
2023-05-02T04:09:04.134Z,1.25
2023-05-02T04:10:07.737Z,1.50
2023-05-02T04:11:10.916Z,0.00
2023-05-02T04:12:14.393Z,1.50
2023-05-02T04:13:17.885Z,1.75
2023-05-02T04:14:21.400Z,2.00
2023-05-02T04:15:24.736Z,2.50
2023-05-02T04:16:28.254Z,3.00
2023-05-02T04:17:31.456Z,2.75
2023-05-02T04:18:34.672Z,1.00
2023-05-02T04:19:38.121Z,2.00
2023-05-02T04:20:41.594Z,2.50
2023-05-02T04:21:45.111Z,3.00
2023-05-02T04:22:48.570Z,4.50
2023-05-02T04:23:52.060Z,3.00
2023-05-02T04:24:55.454Z,2.00
2023-05-02T04:25:58.731Z,3.75
2023-05-02T04:27:02.010Z,2.50
2023-05-02T04:28:05.090Z,1.00
2023-05-02T04:29:08.244Z,1.50
2023-05-02T04:30:11.262Z,2.50
2023-05-02T04:31:14.761Z,3.00
2023-05-02T04:32:17.919Z,2.25
2023-05-02T04:33:21.868Z,0.75
2023-05-02T04:34:25.106Z,2.00
2023-05-02T04:35:28.296Z,3.00
2023-05-02T04:36:31.590Z,3.00
2023-05-02T04:37:34.671Z,2.00
2023-05-02T04:38:37.845Z,1.50
2023-05-02T04:39:41.328Z,2.00
2023-05-02T04:40:44.517Z,2.00
2023-05-02T04:41:47.784Z,2.50
2023-05-02T04:42:51.878Z,3.50
2023-05-02T04:43:54.864Z,3.00
2023-05-02T04:44:58.056Z,1.50
2023-05-02T04:46:01.281Z,3.50
2023-05-02T04:47:04.531Z,4.00
2023-05-02T04:48:07.842Z,2.50
2023-05-02T04:49:10.873Z,2.50
2023-05-02T04:50:14.263Z,2.25
2023-05-02T04:51:17.651Z,2.50
2023-05-02T04:52:20.829Z,3.50
2023-05-02T04:53:24.226Z,2.00
2023-05-02T04:54:27.570Z,2.00
2023-05-02T04:55:30.888Z,1.00
2023-05-02T04:56:33.982Z,1.00
2023-05-02T04:57:37.364Z,2.50
2023-05-02T04:58:40.536Z,2.50
2023-05-02T04:59:43.907Z,1.25
2023-05-02T05:00:47.407Z,2.50
2023-05-02T05:01:50.468Z,2.75
2023-05-02T05:02:53.872Z,2.50
2023-05-02T05:03:57.177Z,2.00
2023-05-02T05:05:00.289Z,2.00
2023-05-02T05:06:03.468Z,2.00
2023-05-02T05:07:06.804Z,2.00
2023-05-02T05:08:10.054Z,1.50
2023-05-02T05:09:13.687Z,3.00
2023-05-02T05:10:17.080Z,3.50
2023-05-02T05:11:20.361Z,1.40
2023-05-02T05:12:23.696Z,2.50
2023-05-02T05:13:27.305Z,4.00
2023-05-02T05:14:30.470Z,3.00
2023-05-02T05:15:33.398Z,3.00
2023-05-02T05:16:36.414Z,3.50
2023-05-02T05:17:39.561Z,2.25
2023-05-02T05:18:42.728Z,1.50
2023-05-02T05:19:45.824Z,3.50
2023-05-02T05:20:48.951Z,5.50
2023-05-02T05:21:51.964Z,4.00
2023-05-02T05:22:55.068Z,1.50
2023-05-02T05:23:58.050Z,2.50
2023-05-02T05:25:01.210Z,2.40
2023-05-02T05:26:04.295Z,2.00
2023-05-02T05:27:07.578Z,1.50
2023-05-02T05:28:10.727Z,1.50
2023-05-02T05:29:13.908Z,1.50
2023-05-02T05:30:17.115Z,0.75
2023-05-02T05:31:20.335Z,1.00
2023-05-02T05:32:23.800Z,2.00
2023-05-02T05:33:27.255Z,2.50
2023-05-02T05:34:30.882Z,1.00
2023-05-02T05:35:34.161Z,1.75
2023-05-02T05:36:37.301Z,1.60
2023-05-02T05:37:41.135Z,2.00
2023-05-02T05:38:44.169Z,4.00
2023-05-02T05:39:47.397Z,5.50
2023-05-02T05:40:50.789Z,1.50
2023-05-02T05:41:54.065Z,1.50
2023-05-02T05:42:58.269Z,3.00
2023-05-02T05:44:01.519Z,2.25
2023-05-02T05:45:05.163Z,3.00
2023-05-02T05:46:08.652Z,2.50
2023-05-02T05:47:11.854Z,1.75
2023-05-02T05:48:15.077Z,1.00
2023-05-02T05:49:18.421Z,0.00
2023-05-02T05:50:21.363Z,2.50
2023-05-02T05:51:24.855Z,2.50
2023-05-02T05:52:27.935Z,0.50
2023-05-02T05:53:31.120Z,0.50
2023-05-02T05:54:34.231Z,1.25
2023-05-02T05:55:37.940Z,1.50
2023-05-02T05:56:41.888Z,1.00
2023-05-02T05:57:45.186Z,1.00
2023-05-02T05:58:48.463Z,2.00
2023-05-02T05:59:51.951Z,2.75
2023-05-02T06:00:55.229Z,0.50
2023-05-02T06:01:58.430Z,2.00
2023-05-02T06:03:01.814Z,1.00
2023-05-02T06:04:05.482Z,1.50
2023-05-02T06:05:09.103Z,3.00
2023-05-02T06:06:12.623Z,1.50
2023-05-02T06:07:15.752Z,1.00
2023-05-02T06:08:19.349Z,1.00
2023-05-02T06:09:22.849Z,1.50
2023-05-02T06:10:26.237Z,1.50
2023-05-02T06:11:29.408Z,2.00
2023-05-02T06:12:32.586Z,2.50
2023-05-02T06:13:36.285Z,2.25
2023-05-02T06:14:39.594Z,1.25
2023-05-02T06:15:42.979Z,3.00
2023-05-02T06:16:46.645Z,3.00
2023-05-02T06:17:50.465Z,2.00
2023-05-02T06:18:53.773Z,1.00
2023-05-02T06:19:57.592Z,0.50
2023-05-02T06:21:01.320Z,1.00
2023-05-02T06:22:04.607Z,1.00
2023-05-02T06:23:07.880Z,1.00
2023-05-02T06:24:11.077Z,0.50
2023-05-02T06:25:14.357Z,0.50
2023-05-02T06:26:18.047Z,1.25
2023-05-02T06:27:21.639Z,1.50
2023-05-02T06:28:24.832Z,2.00
2023-05-02T06:29:28.424Z,2.00
2023-05-02T06:30:32.004Z,1.50
2023-05-02T06:31:35.261Z,0.00
2023-05-02T06:32:38.807Z,1.00
2023-05-02T06:33:41.958Z,1.00
2023-05-02T06:34:45.445Z,0.75
2023-05-02T06:35:48.666Z,1.50
2023-05-02T06:36:51.920Z,1.50
2023-05-02T06:37:55.107Z,1.50
2023-05-02T06:38:58.684Z,1.00
2023-05-02T06:40:02.383Z,0.50
2023-05-02T06:41:06.174Z,0.50
2023-05-02T06:42:09.664Z,2.00
2023-05-02T06:43:13.056Z,2.50
2023-05-02T06:44:16.129Z,1.00
2023-05-02T06:45:19.219Z,1.00
2023-05-02T06:46:22.522Z,2.25
2023-05-02T06:47:26.245Z,1.75
2023-05-02T06:48:29.690Z,1.00
2023-05-02T06:49:33.165Z,0.50
2023-05-02T06:50:36.556Z,0.50
2023-05-02T06:51:40.242Z,1.50
2023-05-02T06:52:43.640Z,2.25
2023-05-02T06:53:47.221Z,1.00
2023-05-02T06:54:50.725Z,1.00
2023-05-02T06:55:54.203Z,1.50
2023-05-02T06:56:57.486Z,0.75
2023-05-02T06:58:00.561Z,1.00
2023-05-02T06:59:03.742Z,1.00
2023-05-02T07:00:07.135Z,1.00
2023-05-02T07:01:13.692Z,1.50
2023-05-02T07:02:16.760Z,1.00
2023-05-02T07:03:20.069Z,1.00
2023-05-02T07:04:24.021Z,1.00
2023-05-02T07:05:27.345Z,1.00
2023-05-02T07:06:30.663Z,1.25
2023-05-02T07:07:42.097Z,4.00
2023-05-02T07:08:45.510Z,3.50
2023-05-02T07:09:49.293Z,1.00
2023-05-02T07:10:53.082Z,0.25
2023-05-02T07:11:56.381Z,1.75
2023-05-02T07:12:59.650Z,0.50
2023-05-02T07:14:02.834Z,0.75
2023-05-02T07:15:06.129Z,1.75
2023-05-02T07:16:09.467Z,2.00
2023-05-02T07:17:12.997Z,0.75
2023-05-02T07:18:16.627Z,0.75
2023-05-02T07:19:20.092Z,1.00
2023-05-02T07:20:23.360Z,2.00
2023-05-02T07:21:27.052Z,1.00
2023-05-02T07:22:30.782Z,1.00
2023-05-02T07:23:34.550Z,1.25
2023-05-02T07:24:38.028Z,1.50
2023-05-02T07:25:41.652Z,1.50
2023-05-02T07:26:45.004Z,1.00
2023-05-02T07:27:48.677Z,1.00
2023-05-02T07:28:52.293Z,1.00
2023-05-02T07:29:55.894Z,2.00
2023-05-02T07:30:59.822Z,3.25
2023-05-02T07:32:03.408Z,2.00
2023-05-02T07:33:06.837Z,2.25
2023-05-02T07:34:10.353Z,1.75
2023-05-02T07:35:14.581Z,0.50
2023-05-02T07:36:18.258Z,1.50
2023-05-02T07:37:22.050Z,1.50
2023-05-02T07:38:25.759Z,2.00
2023-05-02T07:39:29.333Z,2.50
2023-05-02T07:40:33.549Z,2.50
2023-05-02T07:41:37.353Z,1.50
2023-05-02T07:42:40.949Z,1.00
2023-05-02T07:43:44.834Z,1.00
2023-05-02T07:44:48.422Z,1.75
2023-05-02T07:45:52.251Z,1.50
2023-05-02T07:46:55.661Z,2.00
2023-05-02T07:47:59.240Z,1.00
2023-05-02T07:49:02.795Z,1.50
2023-05-02T07:50:05.966Z,1.50
2023-05-02T07:51:09.483Z,1.50
2023-05-02T07:52:14.075Z,2.00
2023-05-02T07:53:17.356Z,1.00
2023-05-02T07:54:20.617Z,1.25
2023-05-02T07:55:24.445Z,2.00
2023-05-02T07:56:28.037Z,1.50
2023-05-02T07:57:31.979Z,2.00
2023-05-02T07:58:35.427Z,2.00
2023-05-02T07:59:38.704Z,1.50
2023-05-02T08:00:41.991Z,2.00
2023-05-02T08:01:45.450Z,1.40
2023-05-02T08:02:49.205Z,2.00
2023-05-02T08:03:52.577Z,1.00
2023-05-02T08:04:56.382Z,1.00
2023-05-02T08:06:00.431Z,1.00
2023-05-02T08:07:03.839Z,1.25
2023-05-02T08:08:07.241Z,1.50
2023-05-02T08:09:10.617Z,3.50
2023-05-02T08:10:13.901Z,4.25
2023-05-02T08:11:17.701Z,3.00
2023-05-02T08:12:21.286Z,2.00
2023-05-02T08:13:25.196Z,2.50
2023-05-02T08:14:29.420Z,2.75
2023-05-02T08:15:33.037Z,2.00
2023-05-02T08:16:36.529Z,2.50
2023-05-02T08:17:40.871Z,3.00
2023-05-02T08:18:44.972Z,3.00
2023-05-02T08:19:48.381Z,1.50
2023-05-02T08:20:52.400Z,2.00
2023-05-02T08:21:56.279Z,2.00
2023-05-02T08:23:00.684Z,1.75
2023-05-02T08:24:04.382Z,2.00
2023-05-02T08:25:08.088Z,1.75
2023-05-02T08:26:11.983Z,3.00
2023-05-02T08:27:15.578Z,3.00
2023-05-02T08:28:19.721Z,3.00
2023-05-02T08:29:23.485Z,3.00
2023-05-02T08:30:27.367Z,3.50
2023-05-02T08:31:31.242Z,2.50
2023-05-02T08:32:35.091Z,2.25
2023-05-02T08:33:38.452Z,3.50
2023-05-02T08:34:43.370Z,3.00
2023-05-02T08:35:59.558Z,3.00
2023-05-02T08:37:03.748Z,2.00
2023-05-02T08:38:09.302Z,3.00
2023-05-02T08:39:12.695Z,3.00
2023-05-02T08:40:20.143Z,2.00
2023-05-02T08:41:21.195Z,2.00
2023-05-02T08:42:25.015Z,2.25
2023-05-02T08:43:28.791Z,2.50
2023-05-02T08:44:32.080Z,3.00
2023-05-02T08:45:38.161Z,3.50
2023-05-02T08:46:41.980Z,2.50
2023-05-02T08:47:45.034Z,1.50
2023-05-02T08:48:48.819Z,2.75
2023-05-02T08:49:52.287Z,2.00
2023-05-02T08:50:55.764Z,2.50
2023-05-02T08:51:59.255Z,2.50
2023-05-02T08:53:03.102Z,3.00
2023-05-02T08:54:07.769Z,3.50
2023-05-02T08:55:11.477Z,2.50
2023-05-02T08:56:22.038Z,2.50
2023-05-02T08:57:25.415Z,2.50
2023-05-02T08:58:28.795Z,2.00
2023-05-02T08:59:32.507Z,2.00
2023-05-02T09:00:36.195Z,1.25
2023-05-02T09:01:39.789Z,2.50
2023-05-02T09:02:43.027Z,2.50
2023-05-02T09:03:46.232Z,2.00
2023-05-02T09:04:49.884Z,2.50
2023-05-02T09:05:54.164Z,2.00
2023-05-02T09:06:57.329Z,2.00
2023-05-02T09:08:00.367Z,2.40
2023-05-02T09:09:03.695Z,2.00
2023-05-02T09:10:06.869Z,1.50
2023-05-02T09:11:10.275Z,1.50
2023-05-02T09:12:13.947Z,2.25
2023-05-02T09:13:17.637Z,2.00
2023-05-02T09:14:21.024Z,3.00
2023-05-02T09:15:24.309Z,3.00
2023-05-02T09:16:27.675Z,2.20
2023-05-02T09:17:31.118Z,1.50
2023-05-02T09:18:34.572Z,1.50
2023-05-02T09:19:38.084Z,2.25
2023-05-02T09:20:41.446Z,3.25
2023-05-02T09:21:44.748Z,3.00
2023-05-02T09:22:48.017Z,1.75
2023-05-02T09:23:51.350Z,1.75
2023-05-02T09:25:00.765Z,1.20
2023-05-02T09:26:04.545Z,2.50
2023-05-02T09:27:08.099Z,2.25
2023-05-02T09:28:11.215Z,2.25
2023-05-02T09:29:14.689Z,2.00
2023-05-02T09:30:18.288Z,2.00
2023-05-02T09:31:43.477Z,2.00
2023-05-02T09:32:26.040Z,1.50
2023-05-02T09:33:29.156Z,1.00
2023-05-02T09:34:32.241Z,1.00
2023-05-02T09:35:35.518Z,1.00
2023-05-02T09:36:38.696Z,1.50
2023-05-02T09:37:42.188Z,2.00
2023-05-02T09:38:45.270Z,2.00
2023-05-02T09:39:49.183Z,2.75
2023-05-02T09:40:55.159Z,2.50
2023-05-02T09:41:58.538Z,2.50
2023-05-02T09:43:01.791Z,3.50
2023-05-02T09:44:05.188Z,2.50
2023-05-02T09:45:08.670Z,1.00
2023-05-02T09:46:12.289Z,1.50
2023-05-02T09:47:16.267Z,2.00
2023-05-02T09:48:19.542Z,2.00
2023-05-02T09:49:23.349Z,2.00
2023-05-02T09:50:26.558Z,2.50
2023-05-02T09:51:29.792Z,2.75
2023-05-02T09:52:32.996Z,2.50
2023-05-02T09:53:36.154Z,2.00
2023-05-02T09:54:39.871Z,1.75
2023-05-02T09:55:43.151Z,2.00
2023-05-02T09:56:47.033Z,3.00
2023-05-02T09:57:50.633Z,2.00
2023-05-02T09:58:53.946Z,2.50
2023-05-02T09:59:57.306Z,2.00
2023-05-02T10:01:00.997Z,1.80
2023-05-02T10:02:04.494Z,2.00
2023-05-02T10:03:07.704Z,2.00
2023-05-02T10:04:10.996Z,3.00
2023-05-02T10:05:15.061Z,3.50
2023-05-02T10:06:18.175Z,2.00
2023-05-02T10:07:21.335Z,2.00
2023-05-02T10:08:24.698Z,3.00
2023-05-02T10:09:28.098Z,3.00
2023-05-02T10:10:31.196Z,2.50
2023-05-02T10:11:34.474Z,4.00
2023-05-02T10:12:37.859Z,3.50
2023-05-02T10:13:41.537Z,2.00
2023-05-02T10:14:45.030Z,2.00
2023-05-02T10:15:48.959Z,1.00
2023-05-02T10:16:52.418Z,1.50
2023-05-02T10:17:56.090Z,2.00
2023-05-02T10:18:59.294Z,2.00
2023-05-02T10:20:02.476Z,3.00
2023-05-02T10:21:08.234Z,3.50
2023-05-02T10:22:13.847Z,4.25
2023-05-02T10:23:17.949Z,4.50
2023-05-02T10:24:22.822Z,3.00
2023-05-02T10:25:26.077Z,3.50
2023-05-02T10:27:50.356Z,2.50
2023-05-02T10:28:53.741Z,3.25
2023-05-02T10:29:57.319Z,3.00
2023-05-02T10:31:08.587Z,2.00
2023-05-02T10:32:12.387Z,2.50
2023-05-02T10:33:15.500Z,1.00
2023-05-02T10:34:18.835Z,2.75
2023-05-02T10:35:22.656Z,3.50
2023-05-02T10:36:26.163Z,3.00
2023-05-02T10:37:29.640Z,2.00
2023-05-02T10:38:33.216Z,1.50
2023-05-02T10:39:36.529Z,1.50
2023-05-02T10:40:39.694Z,2.25
2023-05-02T10:41:42.683Z,2.00
2023-05-02T10:42:47.794Z,2.00
2023-05-02T10:43:51.185Z,3.00
2023-05-02T10:45:04.935Z,3.00
2023-05-02T10:46:08.224Z,2.00
2023-05-02T10:47:11.514Z,2.00
2023-05-02T10:48:14.729Z,3.50
2023-05-02T10:49:19.396Z,4.00
2023-05-02T10:50:26.524Z,3.00
2023-05-02T10:51:32.944Z,2.00
2023-05-02T10:52:37.647Z,2.00
2023-05-02T10:53:40.709Z,3.00
2023-05-02T10:56:05.092Z,1.50
2023-05-02T10:57:08.687Z,1.50
2023-05-02T10:58:14.718Z,1.50
2023-05-02T10:59:19.669Z,3.00
2023-05-02T11:00:23.350Z,3.00
2023-05-02T11:01:28.058Z,2.00
2023-05-02T11:02:33.135Z,2.50
2023-05-02T11:03:37.258Z,3.00
2023-05-02T11:04:40.993Z,4.00
2023-05-02T11:05:44.889Z,4.25
2023-05-02T11:06:48.437Z,3.75
2023-05-02T11:07:53.235Z,2.75
2023-05-02T11:08:56.151Z,3.00
2023-05-02T11:09:59.672Z,3.50
2023-05-02T11:11:04.202Z,4.50
2023-05-02T11:12:07.564Z,6.00
2023-05-02T11:13:11.053Z,5.00
2023-05-02T11:14:14.466Z,3.50
2023-05-02T11:15:17.925Z,2.50
2023-05-02T11:16:21.454Z,5.50
2023-05-02T11:17:25.903Z,7.00
2023-05-02T11:18:30.138Z,5.00
2023-05-02T11:19:33.763Z,4.50
2023-05-02T11:20:37.422Z,4.25
2023-05-02T11:21:42.144Z,5.50
2023-05-02T11:22:45.628Z,6.00
2023-05-02T11:23:49.494Z,5.50
2023-05-02T11:24:52.951Z,3.75
2023-05-02T11:25:58.792Z,3.00
2023-05-02T11:27:02.570Z,2.50
2023-05-02T11:28:05.746Z,4.50
2023-05-02T11:29:09.431Z,4.00
2023-05-02T11:30:12.852Z,5.50
2023-05-02T11:31:16.416Z,4.50
2023-05-02T11:32:20.486Z,2.50
2023-05-02T11:33:25.012Z,2.50
2023-05-02T11:34:32.517Z,2.50
2023-05-02T11:35:35.898Z,3.50
2023-05-02T11:36:39.594Z,2.00
2023-05-02T11:37:43.800Z,1.00
2023-05-02T11:38:47.482Z,1.50
2023-05-02T11:39:50.798Z,1.50
2023-05-02T11:40:53.971Z,1.50
2023-05-02T11:41:57.377Z,2.00
2023-05-02T11:43:00.564Z,1.75
2023-05-02T11:44:04.156Z,2.00
2023-05-02T11:45:08.757Z,2.00
2023-05-02T11:46:13.809Z,2.00
2023-05-02T11:47:17.558Z,2.00
2023-05-02T11:48:21.161Z,2.00
2023-05-02T11:49:24.938Z,2.00
2023-05-02T11:50:28.654Z,2.00
2023-05-02T11:51:32.841Z,2.00
2023-05-02T11:52:36.121Z,1.50
2023-05-02T11:53:39.414Z,1.60
2023-05-02T11:54:43.434Z,3.00
2023-05-02T11:55:47.155Z,2.75
2023-05-02T11:56:51.421Z,3.00
2023-05-02T11:57:54.520Z,3.00
2023-05-02T11:58:58.280Z,2.00
2023-05-02T12:00:01.987Z,2.00
2023-05-02T12:01:04.954Z,2.50
2023-05-02T12:02:08.729Z,3.00
2023-05-02T12:03:12.247Z,2.50
2023-05-02T12:04:15.738Z,3.00
2023-05-02T12:05:18.869Z,2.50
2023-05-02T12:06:22.459Z,3.50
2023-05-02T12:07:26.300Z,3.25
2023-05-02T12:08:29.808Z,3.00
2023-05-02T12:09:33.563Z,3.00
2023-05-02T12:10:36.680Z,2.50
2023-05-02T12:11:39.958Z,3.50
2023-05-02T12:12:43.203Z,6.00
2023-05-02T12:13:46.651Z,6.50
2023-05-02T12:14:50.027Z,4.50
2023-05-02T12:15:53.879Z,4.25
2023-05-02T12:16:57.090Z,3.50
2023-05-02T12:18:06.474Z,2.50
2023-05-02T12:19:10.128Z,2.50
2023-05-02T12:20:13.710Z,3.75
2023-05-02T12:21:16.982Z,4.00
2023-05-02T12:22:20.795Z,3.50
2023-05-02T12:23:24.092Z,3.00
2023-05-02T12:24:27.361Z,3.50
2023-05-02T12:25:30.640Z,5.50
2023-05-02T12:26:35.719Z,5.80
2023-05-02T12:27:39.256Z,5.00
2023-05-02T12:28:42.649Z,3.00
2023-05-02T12:29:45.945Z,3.00
2023-05-02T12:30:49.367Z,3.75
2023-05-02T12:31:52.578Z,4.00
2023-05-02T12:32:56.322Z,4.50
2023-05-02T12:35:22.952Z,3.50
2023-05-02T12:36:27.116Z,2.00
2023-05-02T12:37:30.537Z,2.00
2023-05-02T12:38:34.730Z,4.00
2023-05-02T12:39:38.109Z,4.50
2023-05-02T12:40:41.359Z,4.50
2023-05-02T12:41:45.310Z,5.00
2023-05-02T12:42:48.825Z,4.50
2023-05-02T12:43:52.273Z,3.00
2023-05-02T12:44:55.560Z,4.00
2023-05-02T12:45:59.165Z,4.50
2023-05-02T12:48:23.045Z,3.00
2023-05-02T12:49:27.953Z,2.50
2023-05-02T12:50:32.868Z,3.00
2023-05-02T12:51:36.356Z,3.50
2023-05-02T12:52:40.159Z,3.50
2023-05-02T12:53:44.276Z,4.00
2023-05-02T12:54:47.777Z,4.00
2023-05-02T12:55:51.347Z,3.00
2023-05-02T12:56:55.239Z,2.80
2023-05-02T12:57:59.556Z,2.50
2023-05-02T12:59:03.135Z,3.00
2023-05-02T13:00:07.411Z,3.00
2023-05-02T13:01:11.082Z,3.00
2023-05-02T13:02:15.034Z,3.00
2023-05-02T13:03:18.394Z,2.50
2023-05-02T13:04:22.575Z,2.25
2023-05-02T13:05:26.663Z,3.00
2023-05-02T13:06:29.882Z,4.00
2023-05-02T13:07:33.712Z,3.75
2023-05-02T13:08:36.896Z,4.00
2023-05-02T13:09:40.202Z,4.00
2023-05-02T13:10:43.664Z,3.00
2023-05-02T13:11:50.709Z,3.00
2023-05-02T13:12:54.025Z,2.50
2023-05-02T13:13:57.499Z,2.25
2023-05-02T13:15:00.912Z,2.75
2023-05-02T13:16:04.628Z,3.00
2023-05-02T13:17:08.413Z,2.50
2023-05-02T13:18:11.965Z,3.00
2023-05-02T13:19:15.266Z,3.50
2023-05-02T13:20:18.553Z,2.80
2023-05-02T13:21:21.966Z,3.80
2023-05-02T13:22:25.237Z,3.50
2023-05-02T13:23:28.327Z,3.50
2023-05-02T13:24:33.392Z,3.40
2023-05-02T13:25:36.614Z,3.00
2023-05-02T13:26:39.890Z,3.00
2023-05-02T13:27:43.208Z,2.75
2023-05-02T13:28:47.278Z,2.00
2023-05-02T13:29:51.016Z,2.50
2023-05-02T13:30:54.164Z,4.50
2023-05-02T13:31:57.242Z,3.00
2023-05-02T13:33:00.551Z,1.75
2023-05-02T13:34:04.124Z,1.75
2023-05-02T13:35:07.602Z,2.00
2023-05-02T13:36:11.400Z,2.00
2023-05-02T13:37:14.681Z,2.50
2023-05-02T13:38:17.865Z,1.50
2023-05-02T13:39:20.843Z,2.00
2023-05-02T13:40:23.963Z,1.25
2023-05-02T13:41:27.537Z,1.50
2023-05-02T13:42:31.221Z,2.00
2023-05-02T13:43:34.328Z,2.00
2023-05-02T13:44:37.362Z,1.25
2023-05-02T13:45:40.562Z,1.25
2023-05-02T13:46:43.802Z,2.50
2023-05-02T13:47:47.351Z,3.00
2023-05-02T13:48:50.398Z,1.00
2023-05-02T13:49:53.881Z,0.00
2023-05-02T13:50:57.274Z,0.50
2023-05-02T13:52:03.190Z,1.00
2023-05-02T13:53:06.416Z,1.00
2023-05-02T13:54:09.893Z,1.50
2023-05-02T13:55:13.195Z,2.00
2023-05-02T13:56:16.355Z,1.50
2023-05-02T13:57:19.654Z,1.00
2023-05-02T13:58:23.006Z,1.00
2023-05-02T13:59:26.209Z,1.00
2023-05-02T14:00:30.331Z,2.00
2023-05-02T14:01:34.098Z,2.00
2023-05-02T14:02:37.864Z,1.50
2023-05-02T14:03:41.517Z,1.00
2023-05-02T14:04:44.996Z,0.50
2023-05-02T14:05:48.495Z,1.00
2023-05-02T14:06:51.916Z,1.00
2023-05-02T14:07:55.769Z,1.00
2023-05-02T14:08:59.352Z,0.00
2023-05-02T14:10:02.926Z,1.00
2023-05-02T14:11:07.429Z,1.00
2023-05-02T14:12:10.745Z,0.00
2023-05-02T14:13:14.334Z,0.50
2023-05-02T14:14:17.718Z,0.50